Latest Weather Observations for Ocean Reef

IDW60801

Issued at 5:04 pm WST Saturday 3 December 2016 (issued every 30 minutes, with the page automatically refreshed every 10 minutes)

About weather observations | Map of weather stations | Latest weather observations for WA | Other Formats
Station Details ID: 009214 Name: OCEAN REEF Lat: -31.76 Lon: 115.73 Height: 10.0 m
Data from the previous 72 hours. | See also: Recent months at Ocean Reef
Date/Time
WST
Temp
°C
App
Temp
°C
Dew
Point
°C
Rel
Hum
%
Delta-T
°C
Wind Press
QNH
hPa
Press
MSL
hPa
Rain since
9am
mm
Dir  Spd
km/h
Gust
km/h
Spd
kts
Gust
kts
03/05:00pm - - - - - W 30 30 16 16 - - -
03/04:30pm - - - - - W 22 26 12 14 - - -
03/04:00pm - - - - - W 24 35 13 19 - - -
03/03:30pm - - - - - W 28 32 15 17 - - -
03/03:00pm - - - - - W 24 30 13 16 - - -
03/02:30pm - - - - - W 24 30 13 16 - - -
03/02:00pm - - - - - W 19 24 10 13 - - -
03/01:30pm - - - - - W 24 30 13 16 - - -
03/01:00pm - - - - - W 19 22 10 12 - - -
03/12:30pm - - - - - WSW 24 28 13 15 - - -
03/12:00pm - - - - - W 24 30 13 16 - - -
03/11:30am - - - - - WSW 22 26 12 14 - - -
03/11:00am - - - - - WSW 20 28 11 15 - - -
03/10:30am - - - - - WSW 20 28 11 15 - - -
03/10:00am - - - - - WSW 22 28 12 15 - - -
03/09:30am - - - - - SW 19 26 10 14 - - -
03/09:00am - - - - - SW 20 26 11 14 - - -
03/08:30am - - - - - SW 20 26 11 14 - - -
03/08:00am - - - - - SW 22 28 12 15 - - -
03/07:30am - - - - - SSW 20 26 11 14 - - -
03/07:00am - - - - - SW 22 28 12 15 - - -
03/06:30am - - - - - SSW 24 30 13 16 - - -
03/06:00am - - - - - SSW 26 32 14 17 - - -
03/05:30am - - - - - SSW 24 32 13 17 - - -
03/05:00am - - - - - SSW 24 30 13 16 - - -
03/04:30am - - - - - SSW 26 33 14 18 - - -
03/04:00am - - - - - SSW 28 35 15 19 - - -
03/03:30am - - - - - SSW 30 35 16 19 - - -
03/03:00am - - - - - SSW 32 35 17 19 - - -
03/02:30am - - - - - SSW 30 37 16 20 - - -
03/02:00am - - - - - SSW 30 35 16 19 - - -
03/01:30am - - - - - SSW 30 35 16 19 - - -
03/01:00am - - - - - SSW 32 35 17 19 - - -
03/12:30am - - - - - SSW 32 37 17 20 - - -
03/12:00am - - - - - SSW 32 35 17 19 - - -
 
Date/Time
WST
Temp
°C
App
Temp
°C
Dew
Point
°C
Rel
Hum
%
Delta-T
°C
Wind Press
QNH
hPa
Press
MSL
hPa
Rain since
9am
mm
Dir  Spd
km/h
Gust
km/h
Spd
kts
Gust
kts
02/11:30pm - - - - - SSW 32 35 17 19 - - -
02/11:00pm - - - - - SSW 32 37 17 20 - - -
02/10:30pm - - - - - SSW 28 32 15 17 - - -
02/10:00pm - - - - - SSW 26 32 14 17 - - -
02/09:30pm - - - - - SSW 28 33 15 18 - - -
02/09:00pm - - - - - S 24 30 13 16 - - -
02/08:30pm - - - - - S 28 33 15 18 - - -
02/08:00pm - - - - - S 30 35 16 19 - - -
02/07:30pm - - - - - SSW 33 39 18 21 - - -
02/07:00pm - - - - - SSW 32 37 17 20 - - -
02/06:30pm - - - - - S 32 37 17 20 - - -
02/06:00pm - - - - - SSW 32 35 17 19 - - -
02/05:30pm - - - - - SSW 32 37 17 20 - - -
02/05:00pm - - - - - SSW 32 37 17 20 - - -
02/04:30pm - - - - - SW 28 32 15 17 - - -
02/04:00pm - - - - - SW 30 33 16 18 - - -
02/03:30pm - - - - - SW 30 33 16 18 - - -
02/03:00pm - - - - - SW 28 32 15 17 - - -
02/02:30pm - - - - - SW 28 32 15 17 - - -
02/02:00pm - - - - - SW 30 33 16 18 - - -
02/01:30pm - - - - - SW 28 32 15 17 - - -
02/01:00pm - - - - - SW 28 30 15 16 - - -
02/12:30pm - - - - - SSW 19 24 10 13 - - -
02/12:00pm - - - - - SW 20 24 11 13 - - -
02/11:30am - - - - - SSW 22 26 12 14 - - -
02/11:00am - - - - - SSW 19 24 10 13 - - -
02/10:30am - - - - - SSW 20 24 11 13 - - -
02/10:00am - - - - - SSW 20 26 11 14 - - -
02/09:30am - - - - - SSW 17 20 9 11 - - -
02/09:00am - - - - - ESE 9 17 5 9 - - -
02/08:30am - - - - - ESE 11 19 6 10 - - -
02/08:00am - - - - - E 17 22 9 12 - - -
02/07:30am - - - - - E 15 26 8 14 - - -
02/07:00am - - - - - ESE 11 17 6 9 - - -
02/06:30am - - - - - ESE 11 17 6 9 - - -
02/06:00am - - - - - ESE 11 19 6 10 - - -
02/05:30am - - - - - E 13 22 7 12 - - -
02/05:00am - - - - - SE 9 13 5 7 - - -
02/04:30am - - - - - SE 11 13 6 7 - - -
02/04:00am - - - - - ESE 13 22 7 12 - - -
02/03:30am - - - - - ESE 17 24 9 13 - - -
02/03:00am - - - - - ESE 20 28 11 15 - - -
02/02:30am - - - - - ESE 17 22 9 12 - - -
02/02:00am - - - - - SE 13 19 7 10 - - -
02/01:30am - - - - - SSE 15 19 8 10 - - -
02/01:00am - - - - - SE 15 19 8 10 - - -
02/12:30am - - - - - SSE 17 24 9 13 - - -
02/12:00am - - - - - SSE 17 24 9 13 - - -
 
Date/Time
WST
Temp
°C
App
Temp
°C
Dew
Point
°C
Rel
Hum
%
Delta-T
°C
Wind Press
QNH
hPa
Press
MSL
hPa
Rain since
9am
mm
Dir  Spd
km/h
Gust
km/h
Spd
kts
Gust
kts
01/11:30pm - - - - - SSE 19 26 10 14 - - -
01/11:00pm - - - - - S 33 39 18 21 - - -
01/10:30pm - - - - - S 33 41 18 22 - - -
01/10:00pm - - - - - S 35 44 19 24 - - -
01/09:30pm - - - - - S 33 43 18 23 - - -
01/09:00pm - - - - - SSW 37 41 20 22 - - -
01/08:30pm - - - - - SSW 35 43 19 23 - - -
01/08:00pm - - - - - S 35 41 19 22 - - -
01/07:30pm - - - - - SSW 35 43 19 23 - - -
01/07:00pm - - - - - SSW 35 41 19 22 - - -
01/06:30pm - - - - - S 33 39 18 21 - - -
01/06:00pm - - - - - SSW 37 44 20 24 - - -
01/05:30pm - - - - - SSW 37 43 20 23 - - -
01/05:00pm - - - - - SSW 39 46 21 25 - - -
01/04:30pm - - - - - SSW 39 46 21 25 - - -
01/04:00pm - - - - - SSW 37 43 20 23 - - -
01/03:30pm - - - - - SSW 35 41 19 22 - - -
01/03:00pm - - - - - SSW 33 41 18 22 - - -
01/02:30pm - - - - - SSW 33 41 18 22 - - -
01/02:00pm - - - - - SSW 33 41 18 22 - - -
01/01:30pm - - - - - SSW 33 39 18 21 - - -
01/01:00pm - - - - - SSW 33 37 18 20 - - -
01/12:30pm - - - - - SSW 32 35 17 19 - - -
01/12:00pm - - - - - SSW 32 35 17 19 - - -
01/11:30am - - - - - SSW 26 30 14 16 - - -
01/11:00am - - - - - SSW 24 30 13 16 - - -
01/10:30am - - - - - SSW 22 28 12 15 - - -
01/10:00am - - - - - SSW 22 26 12 14 - - -
01/09:30am - - - - - S 19 26 10 14 - - -
01/09:00am - - - - - SSW 20 26 11 14 - - -
01/08:30am - - - - - SSE 13 19 7 10 - - -
01/08:00am - - - - - SE 13 19 7 10 - - -
01/07:30am - - - - - SE 13 19 7 10 - - -
01/07:00am - - - - - SE 13 19 7 10 - - -
01/06:30am - - - - - SE 9 13 5 7 - - -
01/06:00am - - - - - ESE 9 13 5 7 - - -
01/05:30am - - - - - ESE 13 17 7 9 - - -
01/05:00am - - - - - SE 11 13 6 7 - - -
01/04:30am - - - - - SE 13 15 7 8 - - -
01/04:00am - - - - - SE 13 19 7 10 - - -
01/03:30am - - - - - SE 13 15 7 8 - - -
01/03:00am - - - - - SSE 15 20 8 11 - - -
01/02:30am - - - - - SSE 17 26 9 14 - - -
01/02:00am - - - - - SSE 20 30 11 16 - - -
01/01:30am - - - - - SSE 26 35 14 19 - - -
01/01:00am - - - - - SSE 24 32 13 17 - - -
01/12:30am - - - - - SSE 26 35 14 19 - - -
01/12:00am - - - - - SSE 26 35 14 19 - - -
 
Date/Time
WST
Temp
°C
App
Temp
°C
Dew
Point
°C
Rel
Hum
%
Delta-T
°C
Wind Press
QNH
hPa
Press
MSL
hPa
Rain since
9am
mm
Dir  Spd
km/h
Gust
km/h
Spd
kts
Gust
kts
30/11:30pm - - - - - S 41 50 22 27 - - -
30/11:00pm - - - - - S 41 52 22 28 - - -
30/10:30pm - - - - - S 41 50 22 27 - - -
30/10:00pm - - - - - S 43 50 23 27 - - -
30/09:30pm - - - - - S 44 56 24 30 - - -
30/09:00pm - - - - - SSW 46 54 25 29 - - -
30/08:30pm - - - - - S 46 56 25 30 - - -
30/08:00pm - - - - - SSW 44 54 24 29 - - -
30/07:30pm - - - - - SSW 41 52 22 28 - - -
30/07:00pm - - - - - SSW 39 48 21 26 - - -
30/06:30pm - - - - - SSW 41 50 22 27 - - -
30/06:00pm - - - - - SSW 41 48 22 26 - - -
30/05:30pm - - - - - SSW 39 48 21 26 - - -

Other Formats:

Comma delimited format used in spreadsheet applications
http://www.bom.gov.au/fwo/IDW60801/IDW60801.94607.axf

JavaScript Object Notation format (JSON) in row-major order
http://www.bom.gov.au/fwo/IDW60801/IDW60801.94607.json